sensor_id;sensor_type;location;lat;lon;timestamp;P1;durP1;ratioP1;P2;durP2;ratioP2
8365;SDS011;4220;42.502;24.188;2024-01-15T00:00:17;36.57;;;20.83;;
8365;SDS011;4220;42.502;24.188;2024-01-15T00:02:44;50.07;;;27.43;;
8365;SDS011;4220;42.502;24.188;2024-01-15T00:05:11;61.50;;;29.40;;
8365;SDS011;4220;42.502;24.188;2024-01-15T00:07:38;63.43;;;31.13;;
8365;SDS011;4220;42.502;24.188;2024-01-15T00:10:05;72.93;;;36.33;;
8365;SDS011;4220;42.502;24.188;2024-01-15T00:12:33;76.33;;;38.03;;
8365;SDS011;4220;42.502;24.188;2024-01-15T00:15:00;80.03;;;41.33;;
8365;SDS011;4220;42.502;24.188;2024-01-15T00:17:27;56.83;;;28.13;;
8365;SDS011;4220;42.502;24.188;2024-01-15T00:19:53;41.43;;;23.43;;
8365;SDS011;4220;42.502;24.188;2024-01-15T00:22:20;35.93;;;21.43;;
8365;SDS011;4220;42.502;24.188;2024-01-15T00:24:47;43.70;;;21.97;;
8365;SDS011;4220;42.502;24.188;2024-01-15T00:27:14;40.47;;;22.17;;
8365;SDS011;4220;42.502;24.188;2024-01-15T00:29:42;36.87;;;21.60;;
8365;SDS011;4220;42.502;24.188;2024-01-15T00:32:09;42.03;;;23.17;;
8365;SDS011;4220;42.502;24.188;2024-01-15T00:34:36;40.33;;;23.20;;
8365;SDS011;4220;42.502;24.188;2024-01-15T00:37:02;40.03;;;21.77;;
8365;SDS011;4220;42.502;24.188;2024-01-15T00:39:32;46.30;;;23.53;;
8365;SDS011;4220;42.502;24.188;2024-01-15T00:41:58;49.73;;;25.73;;
8365;SDS011;4220;42.502;24.188;2024-01-15T00:44:25;45.70;;;25.70;;
8365;SDS011;4220;42.502;24.188;2024-01-15T00:46:53;43.27;;;25.17;;
8365;SDS011;4220;42.502;24.188;2024-01-15T00:49:20;48.70;;;24.80;;
8365;SDS011;4220;42.502;24.188;2024-01-15T00:51:49;53.60;;;30.67;;
8365;SDS011;4220;42.502;24.188;2024-01-15T00:54:16;54.07;;;29.30;;
8365;SDS011;4220;42.502;24.188;2024-01-15T00:56:43;46.27;;;26.00;;
8365;SDS011;4220;42.502;24.188;2024-01-15T00:59:10;46.17;;;25.33;;
8365;SDS011;4220;42.502;24.188;2024-01-15T01:01:39;46.50;;;23.17;;
8365;SDS011;4220;42.502;24.188;2024-01-15T01:04:09;44.80;;;23.93;;
8365;SDS011;4220;42.502;24.188;2024-01-15T01:06:36;47.07;;;25.80;;
8365;SDS011;4220;42.502;24.188;2024-01-15T01:09:03;47.80;;;26.17;;
8365;SDS011;4220;42.502;24.188;2024-01-15T01:11:30;59.73;;;29.23;;
8365;SDS011;4220;42.502;24.188;2024-01-15T01:13:57;60.53;;;33.80;;
8365;SDS011;4220;42.502;24.188;2024-01-15T01:16:23;59.07;;;33.70;;
8365;SDS011;4220;42.502;24.188;2024-01-15T01:18:50;55.07;;;28.53;;
8365;SDS011;4220;42.502;24.188;2024-01-15T01:21:18;47.53;;;26.73;;
8365;SDS011;4220;42.502;24.188;2024-01-15T01:23:45;50.33;;;28.73;;
8365;SDS011;4220;42.502;24.188;2024-01-15T01:26:15;46.87;;;24.60;;
8365;SDS011;4220;42.502;24.188;2024-01-15T01:28:42;45.67;;;25.50;;
8365;SDS011;4220;42.502;24.188;2024-01-15T01:31:08;41.90;;;23.10;;
8365;SDS011;4220;42.502;24.188;2024-01-15T01:33:35;39.90;;;25.07;;
8365;SDS011;4220;42.502;24.188;2024-01-15T01:36:06;34.23;;;21.43;;
8365;SDS011;4220;42.502;24.188;2024-01-15T01:38:35;40.23;;;22.60;;
8365;SDS011;4220;42.502;24.188;2024-01-15T01:41:02;45.60;;;24.50;;
8365;SDS011;4220;42.502;24.188;2024-01-15T01:43:29;40.67;;;24.60;;
8365;SDS011;4220;42.502;24.188;2024-01-15T01:45:56;40.93;;;22.93;;
8365;SDS011;4220;42.502;24.188;2024-01-15T01:48:24;41.67;;;24.30;;
8365;SDS011;4220;42.502;24.188;2024-01-15T01:50:52;39.87;;;23.00;;
8365;SDS011;4220;42.502;24.188;2024-01-15T01:53:20;41.27;;;23.87;;
8365;SDS011;4220;42.502;24.188;2024-01-15T01:55:49;54.83;;;30.50;;
8365;SDS011;4220;42.502;24.188;2024-01-15T01:58:16;49.83;;;27.47;;
8365;SDS011;4220;42.502;24.188;2024-01-15T02:00:45;50.90;;;26.87;;
8365;SDS011;4220;42.502;24.188;2024-01-15T02:03:13;56.57;;;29.10;;
8365;SDS011;4220;42.502;24.188;2024-01-15T02:05:40;49.60;;;26.93;;
8365;SDS011;4220;42.502;24.188;2024-01-15T02:08:10;52.17;;;29.13;;
8365;SDS011;4220;42.502;24.188;2024-01-15T02:10:37;49.97;;;27.40;;
8365;SDS011;4220;42.502;24.188;2024-01-15T02:13:05;47.83;;;27.23;;
8365;SDS011;4220;42.502;24.188;2024-01-15T02:15:32;50.53;;;25.67;;
8365;SDS011;4220;42.502;24.188;2024-01-15T02:17:59;47.60;;;25.90;;
8365;SDS011;4220;42.502;24.188;2024-01-15T02:20:27;40.80;;;24.07;;
8365;SDS011;4220;42.502;24.188;2024-01-15T02:23:01;42.30;;;26.20;;
8365;SDS011;4220;42.502;24.188;2024-01-15T02:25:35;66.47;;;34.30;;
8365;SDS011;4220;42.502;24.188;2024-01-15T02:28:02;59.10;;;31.00;;
8365;SDS011;4220;42.502;24.188;2024-01-15T02:30:30;47.77;;;26.10;;
8365;SDS011;4220;42.502;24.188;2024-01-15T02:32:58;39.10;;;22.50;;
8365;SDS011;4220;42.502;24.188;2024-01-15T02:35:25;34.87;;;20.83;;
8365;SDS011;4220;42.502;24.188;2024-01-15T02:37:52;36.87;;;21.80;;
8365;SDS011;4220;42.502;24.188;2024-01-15T02:40:20;34.70;;;19.67;;
8365;SDS011;4220;42.502;24.188;2024-01-15T02:42:47;35.40;;;20.93;;
8365;SDS011;4220;42.502;24.188;2024-01-15T02:45:13;46.53;;;28.67;;
8365;SDS011;4220;42.502;24.188;2024-01-15T02:47:40;46.53;;;27.77;;
8365;SDS011;4220;42.502;24.188;2024-01-15T02:50:07;47.47;;;27.30;;
8365;SDS011;4220;42.502;24.188;2024-01-15T02:52:34;42.97;;;25.67;;
8365;SDS011;4220;42.502;24.188;2024-01-15T02:55:01;47.40;;;27.93;;
8365;SDS011;4220;42.502;24.188;2024-01-15T02:57:30;47.03;;;28.83;;
8365;SDS011;4220;42.502;24.188;2024-01-15T02:59:56;40.80;;;26.20;;
8365;SDS011;4220;42.502;24.188;2024-01-15T03:02:23;43.00;;;24.77;;
8365;SDS011;4220;42.502;24.188;2024-01-15T03:04:50;43.37;;;25.23;;
8365;SDS011;4220;42.502;24.188;2024-01-15T03:07:17;42.23;;;24.40;;
8365;SDS011;4220;42.502;24.188;2024-01-15T03:09:44;47.20;;;27.77;;
8365;SDS011;4220;42.502;24.188;2024-01-15T03:12:11;51.87;;;31.70;;
8365;SDS011;4220;42.502;24.188;2024-01-15T03:14:39;56.20;;;31.27;;
8365;SDS011;4220;42.502;24.188;2024-01-15T03:17:06;41.90;;;25.57;;
8365;SDS011;4220;42.502;24.188;2024-01-15T03:19:34;41.70;;;24.07;;
8365;SDS011;4220;42.502;24.188;2024-01-15T03:22:01;38.10;;;20.97;;
8365;SDS011;4220;42.502;24.188;2024-01-15T03:24:28;42.80;;;22.90;;
8365;SDS011;4220;42.502;24.188;2024-01-15T03:26:55;46.77;;;23.63;;
8365;SDS011;4220;42.502;24.188;2024-01-15T03:29:22;38.83;;;23.00;;
8365;SDS011;4220;42.502;24.188;2024-01-15T03:31:50;41.87;;;25.17;;
8365;SDS011;4220;42.502;24.188;2024-01-15T03:34:17;48.67;;;27.63;;
8365;SDS011;4220;42.502;24.188;2024-01-15T03:36:44;54.70;;;28.57;;
8365;SDS011;4220;42.502;24.188;2024-01-15T03:39:11;51.53;;;29.93;;
8365;SDS011;4220;42.502;24.188;2024-01-15T03:41:38;57.20;;;30.80;;
8365;SDS011;4220;42.502;24.188;2024-01-15T03:44:05;58.93;;;33.57;;
8365;SDS011;4220;42.502;24.188;2024-01-15T03:46:31;67.83;;;34.40;;
8365;SDS011;4220;42.502;24.188;2024-01-15T03:49:00;65.43;;;34.87;;
8365;SDS011;4220;42.502;24.188;2024-01-15T03:51:26;60.10;;;34.90;;
8365;SDS011;4220;42.502;24.188;2024-01-15T03:53:53;57.17;;;31.40;;
8365;SDS011;4220;42.502;24.188;2024-01-15T03:56:20;42.43;;;25.00;;
8365;SDS011;4220;42.502;24.188;2024-01-15T03:58:47;55.23;;;28.23;;
8365;SDS011;4220;42.502;24.188;2024-01-15T04:01:13;50.20;;;29.40;;
8365;SDS011;4220;42.502;24.188;2024-01-15T04:03:40;55.80;;;29.40;;
8365;SDS011;4220;42.502;24.188;2024-01-15T04:06:08;68.73;;;35.83;;
8365;SDS011;4220;42.502;24.188;2024-01-15T04:08:35;63.77;;;34.70;;
8365;SDS011;4220;42.502;24.188;2024-01-15T04:11:02;62.97;;;33.10;;
8365;SDS011;4220;42.502;24.188;2024-01-15T04:13:31;62.97;;;36.03;;
8365;SDS011;4220;42.502;24.188;2024-01-15T04:15:58;60.10;;;32.93;;
8365;SDS011;4220;42.502;24.188;2024-01-15T04:18:26;46.10;;;26.63;;
8365;SDS011;4220;42.502;24.188;2024-01-15T04:20:53;48.60;;;27.30;;
8365;SDS011;4220;42.502;24.188;2024-01-15T04:23:21;52.33;;;26.83;;
8365;SDS011;4220;42.502;24.188;2024-01-15T04:25:48;96.90;;;52.57;;
8365;SDS011;4220;42.502;24.188;2024-01-15T04:28:14;246.23;;;114.10;;
8365;SDS011;4220;42.502;24.188;2024-01-15T04:30:41;147.83;;;74.60;;
8365;SDS011;4220;42.502;24.188;2024-01-15T04:33:08;138.00;;;70.23;;
8365;SDS011;4220;42.502;24.188;2024-01-15T04:35:35;184.20;;;92.20;;
8365;SDS011;4220;42.502;24.188;2024-01-15T04:38:02;291.57;;;152.83;;
8365;SDS011;4220;42.502;24.188;2024-01-15T04:40:30;484.73;;;281.93;;
8365;SDS011;4220;42.502;24.188;2024-01-15T04:42:57;225.33;;;105.03;;
8365;SDS011;4220;42.502;24.188;2024-01-15T04:45:23;359.07;;;171.17;;
8365;SDS011;4220;42.502;24.188;2024-01-15T04:47:53;195.47;;;92.87;;
8365;SDS011;4220;42.502;24.188;2024-01-15T04:50:21;66.40;;;39.20;;
8365;SDS011;4220;42.502;24.188;2024-01-15T04:52:49;64.60;;;34.83;;
8365;SDS011;4220;42.502;24.188;2024-01-15T04:55:16;62.73;;;35.47;;
8365;SDS011;4220;42.502;24.188;2024-01-15T04:57:44;47.40;;;30.30;;
8365;SDS011;4220;42.502;24.188;2024-01-15T05:00:11;49.37;;;27.77;;
8365;SDS011;4220;42.502;24.188;2024-01-15T05:02:39;46.60;;;27.83;;
8365;SDS011;4220;42.502;24.188;2024-01-15T05:05:06;43.97;;;27.77;;
8365;SDS011;4220;42.502;24.188;2024-01-15T05:07:33;43.33;;;27.97;;
8365;SDS011;4220;42.502;24.188;2024-01-15T05:10:00;44.63;;;24.93;;
8365;SDS011;4220;42.502;24.188;2024-01-15T05:12:27;61.47;;;34.23;;
8365;SDS011;4220;42.502;24.188;2024-01-15T05:14:55;68.40;;;35.70;;
8365;SDS011;4220;42.502;24.188;2024-01-15T05:17:22;78.27;;;41.83;;
8365;SDS011;4220;42.502;24.188;2024-01-15T05:19:48;75.10;;;39.47;;
8365;SDS011;4220;42.502;24.188;2024-01-15T05:22:15;196.43;;;93.07;;
8365;SDS011;4220;42.502;24.188;2024-01-15T05:24:42;207.23;;;100.07;;
8365;SDS011;4220;42.502;24.188;2024-01-15T05:27:09;68.53;;;34.57;;
8365;SDS011;4220;42.502;24.188;2024-01-15T05:29:36;39.87;;;23.47;;
8365;SDS011;4220;42.502;24.188;2024-01-15T05:32:04;40.97;;;22.73;;
8365;SDS011;4220;42.502;24.188;2024-01-15T05:34:37;56.90;;;33.00;;
8365;SDS011;4220;42.502;24.188;2024-01-15T05:37:31;72.00;;;42.37;;
8365;SDS011;4220;42.502;24.188;2024-01-15T05:39:58;86.60;;;43.70;;
8365;SDS011;4220;42.502;24.188;2024-01-15T05:42:25;73.27;;;41.43;;
8365;SDS011;4220;42.502;24.188;2024-01-15T05:44:52;69.03;;;38.27;;
8365;SDS011;4220;42.502;24.188;2024-01-15T05:47:28;77.07;;;42.03;;
8365;SDS011;4220;42.502;24.188;2024-01-15T05:49:57;74.97;;;44.37;;
8365;SDS011;4220;42.502;24.188;2024-01-15T05:52:48;81.17;;;44.27;;
8365;SDS011;4220;42.502;24.188;2024-01-15T05:55:15;96.60;;;56.83;;
8365;SDS011;4220;42.502;24.188;2024-01-15T05:57:46;98.40;;;51.53;;
8365;SDS011;4220;42.502;24.188;2024-01-15T06:00:17;98.60;;;51.87;;
8365;SDS011;4220;42.502;24.188;2024-01-15T06:02:48;101.53;;;52.07;;
8365;SDS011;4220;42.502;24.188;2024-01-15T06:05:21;91.77;;;52.03;;
8365;SDS011;4220;42.502;24.188;2024-01-15T06:07:49;94.37;;;52.53;;
8365;SDS011;4220;42.502;24.188;2024-01-15T06:10:15;83.17;;;50.63;;
8365;SDS011;4220;42.502;24.188;2024-01-15T06:12:43;78.10;;;45.93;;
8365;SDS011;4220;42.502;24.188;2024-01-15T06:15:10;135.53;;;68.03;;
8365;SDS011;4220;42.502;24.188;2024-01-15T06:17:37;166.17;;;85.30;;
8365;SDS011;4220;42.502;24.188;2024-01-15T06:20:06;154.83;;;84.33;;
8365;SDS011;4220;42.502;24.188;2024-01-15T06:22:35;143.33;;;72.33;;
8365;SDS011;4220;42.502;24.188;2024-01-15T06:25:04;127.77;;;67.77;;
8365;SDS011;4220;42.502;24.188;2024-01-15T06:27:32;106.53;;;62.77;;
8365;SDS011;4220;42.502;24.188;2024-01-15T06:29:59;124.60;;;63.03;;
8365;SDS011;4220;42.502;24.188;2024-01-15T06:32:25;117.90;;;70.03;;
8365;SDS011;4220;42.502;24.188;2024-01-15T06:34:52;138.73;;;71.23;;
8365;SDS011;4220;42.502;24.188;2024-01-15T06:37:20;122.30;;;65.77;;
8365;SDS011;4220;42.502;24.188;2024-01-15T06:39:47;117.53;;;61.97;;
8365;SDS011;4220;42.502;24.188;2024-01-15T06:42:14;117.23;;;57.33;;
8365;SDS011;4220;42.502;24.188;2024-01-15T06:44:41;96.60;;;50.37;;
8365;SDS011;4220;42.502;24.188;2024-01-15T06:47:08;95.43;;;49.80;;
8365;SDS011;4220;42.502;24.188;2024-01-15T06:49:34;111.10;;;53.07;;
8365;SDS011;4220;42.502;24.188;2024-01-15T06:52:01;98.90;;;57.10;;
8365;SDS011;4220;42.502;24.188;2024-01-15T06:54:29;103.93;;;55.27;;
8365;SDS011;4220;42.502;24.188;2024-01-15T06:56:56;114.93;;;60.23;;
8365;SDS011;4220;42.502;24.188;2024-01-15T06:59:23;104.40;;;55.13;;
8365;SDS011;4220;42.502;24.188;2024-01-15T07:01:50;70.93;;;43.33;;
8365;SDS011;4220;42.502;24.188;2024-01-15T07:04:16;73.07;;;46.20;;
8365;SDS011;4220;42.502;24.188;2024-01-15T07:06:43;77.30;;;45.23;;
8365;SDS011;4220;42.502;24.188;2024-01-15T07:09:10;80.23;;;46.73;;
8365;SDS011;4220;42.502;24.188;2024-01-15T07:11:41;87.33;;;50.00;;
8365;SDS011;4220;42.502;24.188;2024-01-15T07:14:10;85.97;;;51.53;;
8365;SDS011;4220;42.502;24.188;2024-01-15T07:16:37;104.07;;;56.80;;
8365;SDS011;4220;42.502;24.188;2024-01-15T07:19:04;103.70;;;60.63;;
8365;SDS011;4220;42.502;24.188;2024-01-15T07:21:31;109.37;;;65.77;;
8365;SDS011;4220;42.502;24.188;2024-01-15T07:23:58;120.27;;;68.40;;
8365;SDS011;4220;42.502;24.188;2024-01-15T07:26:25;122.43;;;70.90;;
8365;SDS011;4220;42.502;24.188;2024-01-15T07:28:53;117.50;;;69.57;;
8365;SDS011;4220;42.502;24.188;2024-01-15T07:31:20;117.77;;;70.03;;
8365;SDS011;4220;42.502;24.188;2024-01-15T07:33:47;98.27;;;63.03;;
8365;SDS011;4220;42.502;24.188;2024-01-15T07:36:14;146.77;;;81.70;;
8365;SDS011;4220;42.502;24.188;2024-01-15T07:38:41;138.93;;;78.40;;
8365;SDS011;4220;42.502;24.188;2024-01-15T07:41:08;131.17;;;74.00;;
8365;SDS011;4220;42.502;24.188;2024-01-15T07:43:34;117.37;;;68.90;;
8365;SDS011;4220;42.502;24.188;2024-01-15T07:46:03;113.00;;;68.13;;
8365;SDS011;4220;42.502;24.188;2024-01-15T07:48:30;118.97;;;67.20;;
8365;SDS011;4220;42.502;24.188;2024-01-15T07:50:56;116.67;;;72.17;;
8365;SDS011;4220;42.502;24.188;2024-01-15T07:53:23;134.43;;;78.70;;
8365;SDS011;4220;42.502;24.188;2024-01-15T07:55:50;123.37;;;73.23;;
8365;SDS011;4220;42.502;24.188;2024-01-15T07:58:17;123.87;;;73.50;;
8365;SDS011;4220;42.502;24.188;2024-01-15T08:00:44;133.03;;;78.03;;
8365;SDS011;4220;42.502;24.188;2024-01-15T08:03:12;116.47;;;72.30;;
8365;SDS011;4220;42.502;24.188;2024-01-15T08:05:40;126.13;;;73.80;;
8365;SDS011;4220;42.502;24.188;2024-01-15T08:08:07;122.13;;;71.03;;
8365;SDS011;4220;42.502;24.188;2024-01-15T08:10:34;105.97;;;67.73;;
8365;SDS011;4220;42.502;24.188;2024-01-15T08:13:00;116.37;;;73.67;;
8365;SDS011;4220;42.502;24.188;2024-01-15T08:15:27;116.93;;;74.83;;
8365;SDS011;4220;42.502;24.188;2024-01-15T08:17:54;129.30;;;80.13;;
8365;SDS011;4220;42.502;24.188;2024-01-15T08:20:22;138.33;;;84.20;;
8365;SDS011;4220;42.502;24.188;2024-01-15T08:22:49;161.73;;;98.23;;
8365;SDS011;4220;42.502;24.188;2024-01-15T08:25:16;164.50;;;96.23;;
8365;SDS011;4220;42.502;24.188;2024-01-15T08:27:43;149.70;;;91.90;;
8365;SDS011;4220;42.502;24.188;2024-01-15T08:30:10;143.03;;;89.03;;
8365;SDS011;4220;42.502;24.188;2024-01-15T08:32:37;146.77;;;91.43;;
8365;SDS011;4220;42.502;24.188;2024-01-15T08:35:07;150.03;;;93.27;;
8365;SDS011;4220;42.502;24.188;2024-01-15T08:37:35;144.67;;;93.33;;
8365;SDS011;4220;42.502;24.188;2024-01-15T08:40:03;175.97;;;106.60;;
8365;SDS011;4220;42.502;24.188;2024-01-15T08:42:30;162.70;;;99.33;;
8365;SDS011;4220;42.502;24.188;2024-01-15T08:44:57;160.80;;;98.97;;
8365;SDS011;4220;42.502;24.188;2024-01-15T08:47:23;164.40;;;98.20;;
8365;SDS011;4220;42.502;24.188;2024-01-15T08:49:51;163.77;;;97.57;;
8365;SDS011;4220;42.502;24.188;2024-01-15T08:52:17;149.03;;;97.27;;
8365;SDS011;4220;42.502;24.188;2024-01-15T08:54:46;212.13;;;125.13;;
8365;SDS011;4220;42.502;24.188;2024-01-15T08:57:13;214.07;;;125.50;;
8365;SDS011;4220;42.502;24.188;2024-01-15T08:59:40;205.93;;;122.47;;
8365;SDS011;4220;42.502;24.188;2024-01-15T09:02:07;186.37;;;107.40;;
8365;SDS011;4220;42.502;24.188;2024-01-15T09:04:34;135.73;;;89.60;;
8365;SDS011;4220;42.502;24.188;2024-01-15T09:07:01;93.70;;;59.10;;
8365;SDS011;4220;42.502;24.188;2024-01-15T09:09:28;98.13;;;58.00;;
8365;SDS011;4220;42.502;24.188;2024-01-15T09:11:56;102.63;;;59.00;;
8365;SDS011;4220;42.502;24.188;2024-01-15T09:14:23;94.70;;;62.20;;
8365;SDS011;4220;42.502;24.188;2024-01-15T09:16:52;94.80;;;63.73;;
8365;SDS011;4220;42.502;24.188;2024-01-15T09:19:19;105.00;;;67.63;;
8365;SDS011;4220;42.502;24.188;2024-01-15T09:21:46;107.97;;;68.90;;
8365;SDS011;4220;42.502;24.188;2024-01-15T09:24:12;109.57;;;68.47;;
8365;SDS011;4220;42.502;24.188;2024-01-15T09:26:39;154.33;;;93.03;;
8365;SDS011;4220;42.502;24.188;2024-01-15T09:29:07;136.73;;;82.97;;
8365;SDS011;4220;42.502;24.188;2024-01-15T09:31:35;127.77;;;79.30;;
8365;SDS011;4220;42.502;24.188;2024-01-15T09:34:02;119.00;;;71.00;;
8365;SDS011;4220;42.502;24.188;2024-01-15T09:36:28;105.00;;;68.50;;
8365;SDS011;4220;42.502;24.188;2024-01-15T09:38:56;87.60;;;55.63;;
8365;SDS011;4220;42.502;24.188;2024-01-15T09:41:23;82.53;;;54.33;;
8365;SDS011;4220;42.502;24.188;2024-01-15T09:43:50;85.83;;;55.87;;
8365;SDS011;4220;42.502;24.188;2024-01-15T09:46:19;94.67;;;56.00;;
8365;SDS011;4220;42.502;24.188;2024-01-15T09:48:46;86.03;;;53.43;;
8365;SDS011;4220;42.502;24.188;2024-01-15T09:51:13;60.70;;;41.43;;
8365;SDS011;4220;42.502;24.188;2024-01-15T09:53:40;51.67;;;33.20;;
8365;SDS011;4220;42.502;24.188;2024-01-15T09:56:09;39.77;;;25.37;;
8365;SDS011;4220;42.502;24.188;2024-01-15T09:58:37;37.77;;;24.73;;
8365;SDS011;4220;42.502;24.188;2024-01-15T10:01:05;27.43;;;19.20;;
8365;SDS011;4220;42.502;24.188;2024-01-15T10:03:33;21.80;;;16.13;;
8365;SDS011;4220;42.502;24.188;2024-01-15T10:06:00;19.57;;;11.70;;
8365;SDS011;4220;42.502;24.188;2024-01-15T10:08:28;14.40;;;9.20;;
8365;SDS011;4220;42.502;24.188;2024-01-15T10:10:55;20.73;;;12.87;;
8365;SDS011;4220;42.502;24.188;2024-01-15T10:13:22;11.67;;;7.30;;
8365;SDS011;4220;42.502;24.188;2024-01-15T10:15:49;15.97;;;8.93;;
8365;SDS011;4220;42.502;24.188;2024-01-15T10:18:16;12.93;;;8.53;;
8365;SDS011;4220;42.502;24.188;2024-01-15T10:20:44;14.90;;;10.47;;
8365;SDS011;4220;42.502;24.188;2024-01-15T10:23:11;16.87;;;10.87;;
8365;SDS011;4220;42.502;24.188;2024-01-15T10:25:38;10.53;;;8.13;;
8365;SDS011;4220;42.502;24.188;2024-01-15T10:28:07;12.73;;;9.27;;
8365;SDS011;4220;42.502;24.188;2024-01-15T10:30:35;16.07;;;9.13;;
8365;SDS011;4220;42.502;24.188;2024-01-15T10:33:02;17.77;;;10.97;;
8365;SDS011;4220;42.502;24.188;2024-01-15T10:35:30;22.20;;;11.87;;
8365;SDS011;4220;42.502;24.188;2024-01-15T10:37:59;22.30;;;13.23;;
8365;SDS011;4220;42.502;24.188;2024-01-15T10:40:26;11.87;;;8.07;;
8365;SDS011;4220;42.502;24.188;2024-01-15T10:42:53;7.47;;;5.70;;
8365;SDS011;4220;42.502;24.188;2024-01-15T10:45:20;15.90;;;9.07;;
8365;SDS011;4220;42.502;24.188;2024-01-15T10:47:48;16.33;;;10.03;;
8365;SDS011;4220;42.502;24.188;2024-01-15T10:50:15;14.87;;;10.13;;
8365;SDS011;4220;42.502;24.188;2024-01-15T10:52:42;13.27;;;8.37;;
8365;SDS011;4220;42.502;24.188;2024-01-15T10:55:11;13.47;;;7.53;;
8365;SDS011;4220;42.502;24.188;2024-01-15T10:57:39;17.30;;;10.80;;
8365;SDS011;4220;42.502;24.188;2024-01-15T11:00:07;14.67;;;8.73;;
8365;SDS011;4220;42.502;24.188;2024-01-15T11:02:40;16.93;;;9.20;;
8365;SDS011;4220;42.502;24.188;2024-01-15T11:05:07;17.53;;;10.00;;
8365;SDS011;4220;42.502;24.188;2024-01-15T11:07:34;17.50;;;10.27;;
8365;SDS011;4220;42.502;24.188;2024-01-15T11:10:02;10.33;;;7.70;;
8365;SDS011;4220;42.502;24.188;2024-01-15T11:12:31;18.60;;;11.17;;
8365;SDS011;4220;42.502;24.188;2024-01-15T11:15:01;9.10;;;6.27;;
8365;SDS011;4220;42.502;24.188;2024-01-15T11:17:57;10.20;;;5.87;;
8365;SDS011;4220;42.502;24.188;2024-01-15T11:20:25;14.10;;;8.00;;
8365;SDS011;4220;42.502;24.188;2024-01-15T11:22:52;11.50;;;8.20;;
8365;SDS011;4220;42.502;24.188;2024-01-15T11:25:19;17.10;;;11.10;;
8365;SDS011;4220;42.502;24.188;2024-01-15T11:27:47;26.43;;;17.33;;
8365;SDS011;4220;42.502;24.188;2024-01-15T11:30:17;21.03;;;15.87;;
8365;SDS011;4220;42.502;24.188;2024-01-15T11:32:45;22.43;;;15.67;;
8365;SDS011;4220;42.502;24.188;2024-01-15T11:35:12;17.77;;;13.73;;
8365;SDS011;4220;42.502;24.188;2024-01-15T11:37:58;29.50;;;16.07;;
8365;SDS011;4220;42.502;24.188;2024-01-15T11:43:15;29.97;;;16.13;;
8365;SDS011;4220;42.502;24.188;2024-01-15T11:45:45;24.87;;;14.50;;
8365;SDS011;4220;42.502;24.188;2024-01-15T11:48:18;15.17;;;10.03;;
8365;SDS011;4220;42.502;24.188;2024-01-15T11:50:47;21.17;;;14.07;;
8365;SDS011;4220;42.502;24.188;2024-01-15T11:53:16;12.30;;;8.70;;
8365;SDS011;4220;42.502;24.188;2024-01-15T11:55:47;17.27;;;11.80;;
8365;SDS011;4220;42.502;24.188;2024-01-15T11:58:19;12.60;;;9.33;;
8365;SDS011;4220;42.502;24.188;2024-01-15T12:00:47;19.43;;;13.80;;
8365;SDS011;4220;42.502;24.188;2024-01-15T12:03:16;26.13;;;17.17;;
8365;SDS011;4220;42.502;24.188;2024-01-15T12:05:43;17.60;;;12.47;;
8365;SDS011;4220;42.502;24.188;2024-01-15T12:08:10;21.55;;;13.93;;
8365;SDS011;4220;42.502;24.188;2024-01-15T12:10:37;45.13;;;29.02;;
8365;SDS011;4220;42.502;24.188;2024-01-15T12:13:07;19.48;;;11.50;;
8365;SDS011;4220;42.502;24.188;2024-01-15T12:15:38;17.40;;;11.05;;
8365;SDS011;4220;42.502;24.188;2024-01-15T12:18:07;16.10;;;10.25;;
8365;SDS011;4220;42.502;24.188;2024-01-15T12:20:35;14.32;;;10.82;;
8365;SDS011;4220;42.502;24.188;2024-01-15T12:23:02;22.63;;;13.60;;
8365;SDS011;4220;42.502;24.188;2024-01-15T12:25:31;28.25;;;16.60;;
8365;SDS011;4220;42.502;24.188;2024-01-15T12:27:58;24.38;;;14.85;;
8365;SDS011;4220;42.502;24.188;2024-01-15T12:30:26;15.20;;;9.70;;
8365;SDS011;4220;42.502;24.188;2024-01-15T12:32:54;12.45;;;9.15;;
8365;SDS011;4220;42.502;24.188;2024-01-15T12:35:23;21.52;;;12.82;;
8365;SDS011;4220;42.502;24.188;2024-01-15T12:37:51;23.50;;;14.88;;
8365;SDS011;4220;42.502;24.188;2024-01-15T12:40:18;13.85;;;9.93;;
8365;SDS011;4220;42.502;24.188;2024-01-15T12:42:45;8.55;;;6.10;;
8365;SDS011;4220;42.502;24.188;2024-01-15T12:45:12;12.80;;;7.38;;
8365;SDS011;4220;42.502;24.188;2024-01-15T12:47:40;22.33;;;10.95;;
8365;SDS011;4220;42.502;24.188;2024-01-15T12:50:09;15.95;;;10.75;;
8365;SDS011;4220;42.502;24.188;2024-01-15T12:52:37;15.98;;;9.75;;
8365;SDS011;4220;42.502;24.188;2024-01-15T12:55:04;18.80;;;10.87;;
8365;SDS011;4220;42.502;24.188;2024-01-15T12:57:32;14.15;;;10.32;;
8365;SDS011;4220;42.502;24.188;2024-01-15T12:59:59;14.27;;;9.52;;
8365;SDS011;4220;42.502;24.188;2024-01-15T13:02:25;13.27;;;9.80;;
8365;SDS011;4220;42.502;24.188;2024-01-15T13:04:52;14.27;;;9.40;;
8365;SDS011;4220;42.502;24.188;2024-01-15T13:07:21;12.57;;;7.82;;
8365;SDS011;4220;42.502;24.188;2024-01-15T13:09:48;97.88;;;67.57;;
8365;SDS011;4220;42.502;24.188;2024-01-15T13:12:18;92.50;;;59.30;;
8365;SDS011;4220;42.502;24.188;2024-01-15T13:14:45;19.25;;;12.05;;
8365;SDS011;4220;42.502;24.188;2024-01-15T13:17:12;20.67;;;11.73;;
8365;SDS011;4220;42.502;24.188;2024-01-15T13:19:39;13.57;;;9.03;;
8365;SDS011;4220;42.502;24.188;2024-01-15T13:22:06;19.03;;;10.63;;
8365;SDS011;4220;42.502;24.188;2024-01-15T13:24:35;36.13;;;24.10;;
8365;SDS011;4220;42.502;24.188;2024-01-15T13:27:02;13.90;;;10.03;;
8365;SDS011;4220;42.502;24.188;2024-01-15T13:29:31;18.20;;;12.23;;
8365;SDS011;4220;42.502;24.188;2024-01-15T13:31:59;16.53;;;11.20;;
8365;SDS011;4220;42.502;24.188;2024-01-15T13:34:26;15.07;;;10.03;;
8365;SDS011;4220;42.502;24.188;2024-01-15T13:36:52;14.70;;;11.10;;
8365;SDS011;4220;42.502;24.188;2024-01-15T13:39:19;14.30;;;10.37;;
8365;SDS011;4220;42.502;24.188;2024-01-15T13:41:47;19.10;;;12.77;;
8365;SDS011;4220;42.502;24.188;2024-01-15T13:44:14;19.47;;;13.33;;
8365;SDS011;4220;42.502;24.188;2024-01-15T13:46:41;18.07;;;12.50;;
8365;SDS011;4220;42.502;24.188;2024-01-15T13:49:08;23.60;;;15.67;;
8365;SDS011;4220;42.502;24.188;2024-01-15T13:51:35;22.83;;;14.70;;
8365;SDS011;4220;42.502;24.188;2024-01-15T13:54:02;21.23;;;13.60;;
8365;SDS011;4220;42.502;24.188;2024-01-15T13:56:30;32.67;;;22.27;;
8365;SDS011;4220;42.502;24.188;2024-01-15T13:58:59;25.90;;;19.03;;
8365;SDS011;4220;42.502;24.188;2024-01-15T14:01:27;19.30;;;14.27;;
8365;SDS011;4220;42.502;24.188;2024-01-15T14:03:54;19.93;;;13.93;;
8365;SDS011;4220;42.502;24.188;2024-01-15T14:06:21;25.73;;;18.33;;
8365;SDS011;4220;42.502;24.188;2024-01-15T14:08:49;27.63;;;18.70;;
8365;SDS011;4220;42.502;24.188;2024-01-15T14:11:15;79.33;;;43.13;;
8365;SDS011;4220;42.502;24.188;2024-01-15T14:13:42;36.83;;;22.97;;
8365;SDS011;4220;42.502;24.188;2024-01-15T14:16:10;35.93;;;17.97;;
8365;SDS011;4220;42.502;24.188;2024-01-15T14:18:37;26.67;;;15.67;;
8365;SDS011;4220;42.502;24.188;2024-01-15T14:21:04;26.90;;;17.90;;
8365;SDS011;4220;42.502;24.188;2024-01-15T14:23:31;46.20;;;25.00;;
8365;SDS011;4220;42.502;24.188;2024-01-15T14:25:58;33.40;;;21.33;;
8365;SDS011;4220;42.502;24.188;2024-01-15T14:28:24;203.03;;;112.57;;
8365;SDS011;4220;42.502;24.188;2024-01-15T14:30:51;226.93;;;137.53;;
8365;SDS011;4220;42.502;24.188;2024-01-15T14:33:19;48.77;;;27.03;;
8365;SDS011;4220;42.502;24.188;2024-01-15T14:35:46;45.50;;;30.60;;
8365;SDS011;4220;42.502;24.188;2024-01-15T14:38:13;91.17;;;54.37;;